Time;durP1;ratioP1;P1;durP2;ratioP2;P2;SDS_P1;SDS_P2;PMS_P1;PMS_P2;Temp;Humidity;BMP_temperature;BMP_pressure;BME280_temperature;BME280_humidity;BME280_pressure;Samples;Min_cycle;Max_cycle;Signal;HPM_P1;HPM_P2
2022/01/16 00:02:08;;;;;;;235.32;95.18;;;;;;;;;;10444306;27;20081;-56
2022/01/16 00:07:06;;;;;;;150.88;65.15;;;;;;;;;;10442514;27;20159;-55
2022/01/16 00:12:06;;;;;;;208.57;85.68;;;;;;;;;;10443571;27;20586;-52
2022/01/16 00:17:05;;;;;;;182.52;79.68;;;;;;;;;;10442993;27;20082;-53
2022/01/16 00:22:11;;;;;;;181.35;80.70;;;;;;;;;;10442785;27;20061;-52
2022/01/16 00:27:10;;;;;;;94.88;44.78;;;;;;;;;;10443415;27;20416;-55
2022/01/16 00:32:09;;;;;;;100.85;53.15;;;;;;;;;;10442452;27;20039;-54
2022/01/16 00:37:07;;;;;;;92.65;48.80;;;;;;;;;;10441996;27;20046;-52
2022/01/16 00:42:06;;;;;;;123.50;63.83;;;;;;;;;;10441189;27;20078;-54
2022/01/16 00:47:06;;;;;;;105.13;51.22;;;;;;;;;;10441401;27;20097;-55
2022/01/16 00:52:04;;;;;;;221.85;97.70;;;;;;;;;;10439756;27;20081;-55
2022/01/16 00:57:03;;;;;;;149.38;64.68;;;;;;;;;;10440516;27;20077;-53
2022/01/16 01:02:02;;;;;;;304.77;118.00;;;;;;;;;;10439989;27;20044;-57
2022/01/16 01:07:01;;;;;;;161.65;71.68;;;;;;;;;;10439459;27;20500;-53
2022/01/16 01:12:03;;;;;;;90.40;49.25;;;;;;;;;;10438111;27;20451;-57
2022/01/16 01:17:03;;;;;;;55.67;27.52;;;;;;;;;;10438945;27;20039;-57
2022/01/16 01:22:04;;;;;;;99.15;46.85;;;;;;;;;;10438265;27;20445;-55
2022/01/16 01:27:10;;;;;;;93.95;42.03;;;;;;;;;;10439180;27;20484;-55
2022/01/16 01:32:11;;;;;;;84.00;47.50;;;;;;;;;;10438318;27;20394;-56
2022/01/16 01:37:10;;;;;;;62.38;38.95;;;;;;;;;;10438019;27;20071;-55
2022/01/16 01:42:11;;;;;;;70.72;39.20;;;;;;;;;;10438860;27;20066;-54
2022/01/16 01:52:27;;;;;;;58.60;35.95;;;;;;;;;;10421210;27;20043;-52
2022/01/16 01:57:25;;;;;;;79.40;45.38;;;;;;;;;;10437242;27;20078;-56
2022/01/16 02:02:28;;;;;;;50.70;31.98;;;;;;;;;;10436315;27;20159;-55
2022/01/16 02:07:28;;;;;;;38.67;23.92;;;;;;;;;;10436066;27;20067;-55
2022/01/16 02:12:28;;;;;;;36.60;23.77;;;;;;;;;;10436499;27;20035;-56
2022/01/16 02:28:07;;;;;;;27.70;18.95;;;;;;;;;;10436192;27;20077;-54
2022/01/16 02:33:24;;;;;;;21.25;14.38;;;;;;;;;;10435728;28;20609;-55
2022/01/16 02:38:24;;;;;;;18.63;13.13;;;;;;;;;;10421826;28;20059;-54
2022/01/16 02:43:29;;;;;;;16.83;12.43;;;;;;;;;;10437047;28;20051;-51
2022/01/16 02:48:28;;;;;;;19.63;12.25;;;;;;;;;;10436667;28;20047;-54
2022/01/16 02:53:27;;;;;;;22.38;13.43;;;;;;;;;;10435450;28;20039;-55
2022/01/16 02:58:26;;;;;;;27.60;18.67;;;;;;;;;;10434646;27;20051;-55
2022/01/16 03:03:25;;;;;;;25.48;17.48;;;;;;;;;;10433041;28;20089;-54
2022/01/16 03:08:24;;;;;;;24.85;15.98;;;;;;;;;;10429941;28;20062;-55
2022/01/16 03:13:26;;;;;;;39.78;24.08;;;;;;;;;;10430087;28;20588;-55
2022/01/16 03:23:36;;;;;;;21.70;13.63;;;;;;;;;;10411688;27;20413;-51
2022/01/16 03:28:36;;;;;;;21.20;12.90;;;;;;;;;;10436326;28;20085;-52
2022/01/16 03:33:34;;;;;;;18.05;11.75;;;;;;;;;;10435980;28;20449;-53
2022/01/16 03:38:33;;;;;;;51.00;29.45;;;;;;;;;;10438370;27;20516;-56
2022/01/16 03:43:31;;;;;;;21.05;13.27;;;;;;;;;;10443254;27;20031;-54
2022/01/16 03:48:31;;;;;;;19.30;15.23;;;;;;;;;;10442851;27;20075;-53
2022/01/16 03:53:29;;;;;;;19.92;13.73;;;;;;;;;;10442114;27;20471;-53
2022/01/16 03:58:27;;;;;;;21.55;12.05;;;;;;;;;;10441968;27;20074;-54
2022/01/16 04:03:25;;;;;;;18.90;12.98;;;;;;;;;;10442326;27;20105;-55
2022/01/16 04:08:25;;;;;;;23.15;14.13;;;;;;;;;;10442704;27;20063;-55
2022/01/16 04:13:23;;;;;;;15.63;11.55;;;;;;;;;;10442059;27;20074;-54
2022/01/16 04:18:21;;;;;;;19.73;12.35;;;;;;;;;;10443301;27;20043;-57
2022/01/16 04:23:20;;;;;;;18.42;14.38;;;;;;;;;;10438959;27;20058;-53
2022/01/16 04:28:24;;;;;;;18.83;14.13;;;;;;;;;;10438771;27;20108;-52
2022/01/16 04:33:22;;;;;;;22.73;14.20;;;;;;;;;;10441685;27;20071;-54
2022/01/16 04:38:21;;;;;;;44.47;25.20;;;;;;;;;;10440836;27;20066;-55
2022/01/16 04:48:36;;;;;;;17.98;13.30;;;;;;;;;;10438405;27;20075;-53
2022/01/16 04:53:35;;;;;;;20.15;14.00;;;;;;;;;;10438204;27;20556;-55
2022/01/16 04:58:35;;;;;;;27.15;17.92;;;;;;;;;;10438571;27;20480;-54
2022/01/16 05:03:34;;;;;;;17.90;12.98;;;;;;;;;;10436801;27;20035;-52
2022/01/16 05:08:32;;;;;;;18.40;12.40;;;;;;;;;;10437974;27;20070;-56
2022/01/16 05:16:35;;;;;;;21.48;15.02;;;;;;;;;;10436471;27;20066;-54
2022/01/16 05:18:51;;;;;;;21.35;14.73;;;;;;;;;;10433976;27;20075;-53
2022/01/16 05:23:50;;;;;;;19.45;13.73;;;;;;;;;;10433383;27;20081;-53
2022/01/16 05:28:48;;;;;;;23.83;14.73;;;;;;;;;;10436506;27;20515;-56
2022/01/16 05:33:47;;;;;;;19.85;13.85;;;;;;;;;;10436686;27;20062;-56
2022/01/16 05:38:47;;;;;;;23.25;15.52;;;;;;;;;;10429620;27;20082;-56
2022/01/16 05:43:45;;;;;;;24.73;18.17;;;;;;;;;;10434630;27;20075;-55
2022/01/16 05:48:43;;;;;;;30.55;24.58;;;;;;;;;;10433571;27;20414;-54
2022/01/16 05:53:44;;;;;;;21.88;15.02;;;;;;;;;;10429931;27;20043;-54
2022/01/16 05:58:43;;;;;;;19.90;14.77;;;;;;;;;;10429743;27;20082;-52
2022/01/16 06:03:42;;;;;;;27.88;20.73;;;;;;;;;;10431821;27;20418;-53
2022/01/16 06:08:40;;;;;;;21.02;16.13;;;;;;;;;;10430381;27;20066;-55
2022/01/16 06:13:39;;;;;;;27.00;14.35;;;;;;;;;;10429802;27;20058;-54
2022/01/16 06:18:38;;;;;;;21.80;15.85;;;;;;;;;;10429431;27;20111;-50
2022/01/16 06:23:37;;;;;;;19.67;12.80;;;;;;;;;;10429554;27;20424;-55
2022/01/16 06:28:35;;;;;;;22.75;15.82;;;;;;;;;;10429957;27;20085;-55
2022/01/16 06:33:35;;;;;;;23.08;15.48;;;;;;;;;;10429168;27;20115;-55
2022/01/16 06:38:35;;;;;;;29.35;19.02;;;;;;;;;;10428990;28;20107;-56
2022/01/16 06:43:34;;;;;;;20.88;14.20;;;;;;;;;;10430274;28;20083;-53
2022/01/16 06:48:32;;;;;;;23.58;13.85;;;;;;;;;;10424789;27;20078;-54
2022/01/16 06:53:30;;;;;;;21.17;14.05;;;;;;;;;;10425050;28;20111;-54
2022/01/16 06:58:30;;;;;;;20.20;13.55;;;;;;;;;;10430156;27;20533;-54
2022/01/16 07:03:28;;;;;;;80.90;44.05;;;;;;;;;;10429338;28;20074;-54
2022/01/16 07:08:27;;;;;;;160.93;82.55;;;;;;;;;;10430387;28;20059;-52
2022/01/16 07:13:25;;;;;;;105.30;51.70;;;;;;;;;;10432257;27;20078;-51
2022/01/16 07:18:25;;;;;;;131.60;67.50;;;;;;;;;;10438442;27;20070;-55
2022/01/16 07:23:23;;;;;;;181.85;86.25;;;;;;;;;;10436172;27;20039;-56
2022/01/16 07:28:22;;;;;;;214.63;102.78;;;;;;;;;;10434582;27;20074;-56
2022/01/16 07:33:20;;;;;;;177.90;81.93;;;;;;;;;;10435435;27;20074;-56
2022/01/16 07:38:19;;;;;;;387.77;159.45;;;;;;;;;;10438478;27;20276;-56
2022/01/16 07:43:18;;;;;;;218.88;89.32;;;;;;;;;;10438345;27;20071;-56
2022/01/16 07:48:16;;;;;;;156.35;64.25;;;;;;;;;;10437866;27;20086;-56
2022/01/16 07:53:14;;;;;;;287.45;114.32;;;;;;;;;;10434853;27;20055;-56
2022/01/16 07:58:14;;;;;;;152.13;71.10;;;;;;;;;;10417218;27;20063;-54
2022/01/16 08:03:12;;;;;;;76.00;38.67;;;;;;;;;;10436930;27;20115;-53
2022/01/16 08:08:11;;;;;;;288.52;139.13;;;;;;;;;;10439960;27;20077;-54
2022/01/16 08:13:09;;;;;;;187.85;96.20;;;;;;;;;;10437327;27;20075;-53
2022/01/16 08:18:09;;;;;;;94.68;46.65;;;;;;;;;;10438183;27;20047;-55
2022/01/16 08:23:07;;;;;;;76.10;40.28;;;;;;;;;;10440884;27;20066;-55
2022/01/16 08:28:05;;;;;;;32.60;20.17;;;;;;;;;;10439684;27;20071;-57
2022/01/16 08:33:04;;;;;;;50.35;29.90;;;;;;;;;;10440561;27;20125;-53
2022/01/16 08:38:03;;;;;;;128.00;74.60;;;;;;;;;;10441082;27;20441;-52
2022/01/16 08:43:08;;;;;;;34.58;24.27;;;;;;;;;;10440778;27;20461;-53
2022/01/16 08:48:07;;;;;;;48.67;40.15;;;;;;;;;;10438413;27;20338;-56
2022/01/16 08:53:07;;;;;;;53.63;35.97;;;;;;;;;;10440155;27;20067;-55
2022/01/16 08:58:06;;;;;;;47.30;28.83;;;;;;;;;;10440982;27;20522;-56
2022/01/16 09:03:04;;;;;;;34.10;24.23;;;;;;;;;;10439582;27;20070;-55
2022/01/16 09:08:02;;;;;;;83.07;44.88;;;;;;;;;;10439821;27;20460;-57
2022/01/16 09:13:03;;;;;;;64.38;37.42;;;;;;;;;;10439357;27;20471;-56
2022/01/16 09:18:01;;;;;;;54.08;34.63;;;;;;;;;;10439632;27;20523;-54
2022/01/16 09:22:59;;;;;;;51.15;33.15;;;;;;;;;;10439232;27;20074;-53
2022/01/16 09:27:58;;;;;;;42.80;29.27;;;;;;;;;;10438760;27;20075;-52
2022/01/16 09:33:00;;;;;;;44.65;29.42;;;;;;;;;;10438501;27;20063;-56
2022/01/16 09:37:58;;;;;;;37.53;23.80;;;;;;;;;;10437647;27;20075;-53
2022/01/16 09:42:57;;;;;;;55.72;33.78;;;;;;;;;;10434767;27;20082;-56
2022/01/16 09:47:55;;;;;;;32.58;22.83;;;;;;;;;;10437177;27;20086;-55
2022/01/16 09:52:55;;;;;;;64.10;40.17;;;;;;;;;;10437277;27;20073;-54
2022/01/16 09:57:55;;;;;;;26.58;20.48;;;;;;;;;;10436242;27;20436;-56
2022/01/16 10:02:54;;;;;;;31.35;20.95;;;;;;;;;;10433825;27;20477;-55
2022/01/16 10:07:54;;;;;;;32.03;22.67;;;;;;;;;;10434239;27;20082;-55
2022/01/16 10:12:55;;;;;;;42.97;27.15;;;;;;;;;;10435576;27;20070;-55
2022/01/16 10:17:53;;;;;;;31.48;23.70;;;;;;;;;;10437771;27;20075;-51
2022/01/16 10:22:53;;;;;;;35.60;23.40;;;;;;;;;;10436633;27;20082;-56
2022/01/16 10:27:52;;;;;;;25.48;17.35;;;;;;;;;;10436422;27;20075;-52
2022/01/16 10:32:51;;;;;;;39.70;26.90;;;;;;;;;;10436760;27;20075;-57
2022/01/16 10:37:51;;;;;;;49.15;30.35;;;;;;;;;;10437435;28;20031;-56
2022/01/16 10:42:50;;;;;;;47.78;31.95;;;;;;;;;;10436679;28;20070;-58
2022/01/16 10:47:54;;;;;;;31.40;21.65;;;;;;;;;;10436758;27;20074;-55
2022/01/16 10:52:54;;;;;;;39.80;24.00;;;;;;;;;;10444333;27;20075;-56
2022/01/16 10:58:00;;;;;;;38.72;23.75;;;;;;;;;;10445246;27;20483;-56
2022/01/16 11:03:01;;;;;;;32.72;21.73;;;;;;;;;;10445259;27;20448;-57
2022/01/16 11:08:01;;;;;;;27.77;19.02;;;;;;;;;;10445391;27;20083;-56
2022/01/16 11:13:05;;;;;;;27.13;19.20;;;;;;;;;;10444944;27;20040;-56
2022/01/16 11:18:06;;;;;;;31.42;21.00;;;;;;;;;;10443876;27;20082;-55
2022/01/16 11:23:12;;;;;;;33.08;20.58;;;;;;;;;;10441588;27;20132;-54
2022/01/16 11:28:12;;;;;;;30.60;19.63;;;;;;;;;;10440658;27;20066;-55
2022/01/16 11:33:11;;;;;;;28.80;20.27;;;;;;;;;;10439853;27;20063;-53
2022/01/16 11:38:10;;;;;;;30.02;22.27;;;;;;;;;;10443650;27;20073;-54
2022/01/16 11:43:16;;;;;;;32.05;23.33;;;;;;;;;;10443968;27;20067;-56
2022/01/16 11:48:19;;;;;;;37.05;23.98;;;;;;;;;;10426961;27;20101;-55
2022/01/16 11:53:36;;;;;;;39.30;23.75;;;;;;;;;;10442435;27;20059;-51
2022/01/16 11:59:04;;;;;;;28.48;17.98;;;;;;;;;;10416722;27;20078;-54
2022/01/16 12:04:03;;;;;;;47.75;28.70;;;;;;;;;;10423674;27;20070;-55
2022/01/16 12:09:04;;;;;;;51.47;29.33;;;;;;;;;;10431583;27;20089;-53
2022/01/16 12:14:02;;;;;;;77.78;41.63;;;;;;;;;;10419829;27;20085;-52
2022/01/16 12:19:15;;;;;;;43.30;29.83;;;;;;;;;;10429641;27;20089;-55
2022/01/16 12:24:29;;;;;;;55.22;33.40;;;;;;;;;;10417572;27;20520;-56
2022/01/16 12:29:30;;;;;;;60.50;33.92;;;;;;;;;;10429592;27;20058;-54
2022/01/16 12:34:42;;;;;;;64.47;37.92;;;;;;;;;;10409805;27;20055;-54
2022/01/16 12:39:42;;;;;;;37.53;25.90;;;;;;;;;;10425443;27;20120;-54
2022/01/16 12:44:42;;;;;;;63.03;29.92;;;;;;;;;;10423622;27;20086;-54
2022/01/16 12:49:40;;;;;;;46.50;25.75;;;;;;;;;;10417620;27;20518;-54
2022/01/16 12:54:39;;;;;;;58.38;35.13;;;;;;;;;;10433663;27;20114;-54
2022/01/16 12:59:37;;;;;;;28.65;19.55;;;;;;;;;;10433362;27;20129;-57
2022/01/16 13:04:38;;;;;;;33.70;21.83;;;;;;;;;;10436936;27;20452;-55
2022/01/16 13:09:56;;;;;;;38.28;24.58;;;;;;;;;;10428537;27;20086;-55
2022/01/16 13:14:59;;;;;;;56.60;33.38;;;;;;;;;;10426190;27;20082;-56
2022/01/16 13:20:01;;;;;;;45.55;28.05;;;;;;;;;;10434705;27;20081;-54
2022/01/16 13:25:02;;;;;;;48.38;33.67;;;;;;;;;;10434674;27;20074;-56
2022/01/16 13:30:02;;;;;;;59.35;36.28;;;;;;;;;;10431493;27;20070;-55
2022/01/16 13:35:02;;;;;;;72.35;48.75;;;;;;;;;;10429152;27;20097;-56
2022/01/16 13:40:02;;;;;;;57.63;33.58;;;;;;;;;;10430122;27;20079;-56
2022/01/16 13:45:17;;;;;;;119.38;72.15;;;;;;;;;;10431853;27;20055;-56
2022/01/16 13:50:17;;;;;;;61.58;41.47;;;;;;;;;;10431582;27;20470;-56
2022/01/16 13:55:15;;;;;;;41.60;25.30;;;;;;;;;;10433093;27;20062;-54
2022/01/16 14:00:14;;;;;;;63.97;39.85;;;;;;;;;;10432297;27;20160;-56
2022/01/16 14:05:23;;;;;;;69.32;43.45;;;;;;;;;;10432752;27;20043;-54
2022/01/16 14:10:36;;;;;;;75.72;39.45;;;;;;;;;;10429831;27;20093;-55
2022/01/16 14:15:38;;;;;;;72.20;41.08;;;;;;;;;;10422779;27;20090;-52
2022/01/16 14:21:58;;;;;;;149.15;85.55;;;;;;;;;;10434958;27;20054;-56
2022/01/16 14:26:10;;;;;;;62.72;38.08;;;;;;;;;;10435246;27;20074;-56
2022/01/16 14:31:10;;;;;;;98.70;52.58;;;;;;;;;;10437413;27;20071;-54
2022/01/16 14:36:18;;;;;;;186.32;86.28;;;;;;;;;;10437159;27;20042;-55
2022/01/16 14:41:17;;;;;;;269.73;117.32;;;;;;;;;;10437334;27;20059;-55
2022/01/16 14:46:15;;;;;;;417.10;208.90;;;;;;;;;;10437087;28;20518;-56
2022/01/16 14:51:17;;;;;;;115.88;75.53;;;;;;;;;;10436516;28;20536;-55
2022/01/16 14:56:16;;;;;;;118.72;78.88;;;;;;;;;;10434822;28;20070;-53
2022/01/16 15:01:14;;;;;;;178.07;108.47;;;;;;;;;;10434085;28;20062;-57
2022/01/16 15:06:13;;;;;;;100.90;61.67;;;;;;;;;;10435964;27;20075;-56
2022/01/16 15:11:13;;;;;;;100.75;65.05;;;;;;;;;;10434480;28;20530;-55
2022/01/16 15:16:14;;;;;;;106.53;66.03;;;;;;;;;;10434439;28;20500;-54
2022/01/16 15:21:15;;;;;;;117.05;70.32;;;;;;;;;;10434437;28;20063;-57
2022/01/16 15:26:15;;;;;;;84.10;53.40;;;;;;;;;;10436988;28;20067;-56
2022/01/16 15:31:14;;;;;;;108.38;67.15;;;;;;;;;;10437747;28;20116;-54
2022/01/16 15:36:12;;;;;;;92.10;61.92;;;;;;;;;;10441622;27;20073;-56
2022/01/16 15:41:11;;;;;;;90.70;62.83;;;;;;;;;;10445073;27;20043;-56
2022/01/16 15:46:10;;;;;;;243.85;166.43;;;;;;;;;;10445228;27;20067;-56
2022/01/16 15:51:12;;;;;;;163.35;100.30;;;;;;;;;;10443340;27;20098;-57
2022/01/16 15:56:30;;;;;;;162.07;99.95;;;;;;;;;;10444847;27;20047;-56
2022/01/16 16:01:30;;;;;;;201.30;119.20;;;;;;;;;;10442187;27;20078;-58
2022/01/16 16:06:30;;;;;;;163.05;104.43;;;;;;;;;;10426716;27;20058;-56
2022/01/16 16:11:28;;;;;;;97.72;69.82;;;;;;;;;;10411259;27;20079;-57
2022/01/16 16:16:26;;;;;;;107.00;75.22;;;;;;;;;;10395808;28;20071;-52
2022/01/16 16:21:26;;;;;;;114.55;78.18;;;;;;;;;;10420361;27;20058;-56
2022/01/16 16:26:24;;;;;;;102.07;68.70;;;;;;;;;;10434686;27;20082;-56
2022/01/16 16:31:23;;;;;;;114.63;66.10;;;;;;;;;;10436711;27;20075;-57
2022/01/16 16:36:21;;;;;;;187.38;101.93;;;;;;;;;;10439152;27;20084;-57
2022/01/16 16:41:21;;;;;;;164.80;101.47;;;;;;;;;;10441557;27;20528;-55
2022/01/16 16:46:19;;;;;;;84.40;53.10;;;;;;;;;;10441177;27;20050;-57
2022/01/16 16:51:17;;;;;;;109.32;67.13;;;;;;;;;;10439747;27;20082;-55
2022/01/16 16:56:16;;;;;;;63.10;42.85;;;;;;;;;;10441653;27;20054;-56
2022/01/16 17:01:15;;;;;;;46.47;33.67;;;;;;;;;;10441231;27;20062;-56
2022/01/16 17:06:14;;;;;;;74.80;48.38;;;;;;;;;;10425163;27;20070;-57
2022/01/16 17:11:18;;;;;;;58.25;37.65;;;;;;;;;;10441083;27;20086;-54
2022/01/16 17:16:18;;;;;;;58.97;39.97;;;;;;;;;;10425058;27;20059;-53
2022/01/16 17:21:17;;;;;;;124.32;71.95;;;;;;;;;;10438365;27;20070;-56
2022/01/16 17:26:15;;;;;;;133.38;71.93;;;;;;;;;;10440567;27;20435;-56
2022/01/16 17:31:13;;;;;;;157.07;87.60;;;;;;;;;;10438927;27;20067;-52
2022/01/16 17:36:13;;;;;;;68.10;42.33;;;;;;;;;;10423064;27;20079;-57
2022/01/16 17:41:12;;;;;;;64.05;41.80;;;;;;;;;;10439413;27;20078;-53
2022/01/16 17:46:11;;;;;;;68.57;46.90;;;;;;;;;;10439651;27;20054;-56
2022/01/16 17:51:10;;;;;;;60.55;38.88;;;;;;;;;;10438673;27;20075;-56
2022/01/16 17:56:09;;;;;;;56.30;40.60;;;;;;;;;;10439085;27;20074;-58
2022/01/16 18:01:08;;;;;;;48.67;37.03;;;;;;;;;;10438466;27;20067;-54
2022/01/16 18:06:06;;;;;;;81.15;58.22;;;;;;;;;;10438325;27;20082;-56
2022/01/16 18:11:05;;;;;;;47.60;31.92;;;;;;;;;;10438446;27;20074;-52
2022/01/16 18:16:05;;;;;;;79.38;46.83;;;;;;;;;;10438494;27;20097;-53
2022/01/16 18:21:03;;;;;;;78.80;47.17;;;;;;;;;;10437500;27;20112;-57
2022/01/16 18:26:01;;;;;;;126.20;68.47;;;;;;;;;;10438258;27;20062;-52
2022/01/16 18:31:00;;;;;;;103.65;56.25;;;;;;;;;;10437805;27;20101;-55
2022/01/16 18:36:00;;;;;;;197.82;111.20;;;;;;;;;;10438289;27;20070;-57
2022/01/16 18:40:59;;;;;;;260.25;147.63;;;;;;;;;;10437302;27;20078;-55
2022/01/16 18:45:59;;;;;;;125.45;81.03;;;;;;;;;;10437154;27;20086;-56
2022/01/16 18:51:00;;;;;;;179.95;107.53;;;;;;;;;;10436801;28;20094;-56
2022/01/16 18:56:01;;;;;;;109.10;64.95;;;;;;;;;;10437277;28;20079;-57
2022/01/16 19:00:59;;;;;;;83.68;54.70;;;;;;;;;;10435436;28;20051;-56
2022/01/16 19:05:58;;;;;;;97.30;56.53;;;;;;;;;;10437089;27;20074;-56
2022/01/16 19:10:59;;;;;;;74.00;50.15;;;;;;;;;;10441107;27;20070;-56
2022/01/16 19:15:59;;;;;;;63.35;37.10;;;;;;;;;;10445011;27;20043;-56
2022/01/16 19:20:57;;;;;;;56.38;38.03;;;;;;;;;;10445107;27;20078;-53
2022/01/16 19:25:56;;;;;;;68.03;43.10;;;;;;;;;;10444897;27;20515;-55
2022/01/16 19:31:02;;;;;;;55.60;35.25;;;;;;;;;;10444683;27;20082;-56
2022/01/16 19:36:03;;;;;;;55.10;36.05;;;;;;;;;;10444658;27;20071;-56
2022/01/16 19:41:02;;;;;;;44.78;31.42;;;;;;;;;;10444336;27;20123;-56
2022/01/16 19:46:06;;;;;;;34.00;23.92;;;;;;;;;;10444320;27;20079;-56
2022/01/16 19:51:05;;;;;;;30.38;24.00;;;;;;;;;;10443157;27;20083;-57
2022/01/16 19:56:03;;;;;;;27.35;21.40;;;;;;;;;;10443455;27;20066;-57
2022/01/16 20:01:06;;;;;;;24.33;18.77;;;;;;;;;;10440711;27;20078;-54
2022/01/16 20:06:06;;;;;;;21.90;17.08;;;;;;;;;;10440135;27;20085;-55
2022/01/16 20:11:04;;;;;;;24.90;17.55;;;;;;;;;;10440483;27;20377;-53
2022/01/16 20:16:04;;;;;;;23.08;17.65;;;;;;;;;;10439341;27;20480;-56
2022/01/16 20:21:02;;;;;;;22.55;16.60;;;;;;;;;;10439868;27;20460;-53
2022/01/16 20:26:02;;;;;;;21.42;15.95;;;;;;;;;;10440670;27;20356;-56
2022/01/16 20:31:00;;;;;;;22.60;15.85;;;;;;;;;;10432470;27;20070;-52
2022/01/16 20:35:59;;;;;;;36.85;24.13;;;;;;;;;;10432621;27;20070;-56
2022/01/16 20:40:57;;;;;;;32.83;23.85;;;;;;;;;;10428154;27;20074;-52
2022/01/16 20:45:57;;;;;;;40.40;27.90;;;;;;;;;;10441440;27;20054;-56
2022/01/16 20:50:56;;;;;;;43.47;33.20;;;;;;;;;;10433548;27;20093;-55
2022/01/16 20:55:54;;;;;;;30.23;22.27;;;;;;;;;;10442628;27;20081;-58
2022/01/16 21:00:53;;;;;;;29.90;23.35;;;;;;;;;;10437640;27;20078;-57
2022/01/16 21:05:53;;;;;;;72.22;45.42;;;;;;;;;;10430207;27;20062;-56
2022/01/16 21:10:54;;;;;;;118.28;72.07;;;;;;;;;;10441075;27;20102;-56
2022/01/16 21:15:54;;;;;;;89.05;59.97;;;;;;;;;;10427134;27;20329;-56
2022/01/16 21:20:54;;;;;;;82.53;57.65;;;;;;;;;;10430277;27;20071;-57
2022/01/16 21:25:54;;;;;;;91.70;55.72;;;;;;;;;;10438222;27;20066;-54
2022/01/16 21:30:53;;;;;;;65.10;42.58;;;;;;;;;;10441272;27;20071;-54
2022/01/16 21:35:52;;;;;;;77.10;46.97;;;;;;;;;;10441194;27;20066;-56
2022/01/16 21:40:51;;;;;;;91.88;54.30;;;;;;;;;;10441292;27;20043;-56
2022/01/16 21:45:50;;;;;;;194.32;99.22;;;;;;;;;;10441204;27;20035;-56
2022/01/16 21:50:48;;;;;;;145.43;73.07;;;;;;;;;;10439503;27;20488;-57
2022/01/16 21:55:46;;;;;;;212.70;105.22;;;;;;;;;;10439415;27;20043;-55
2022/01/16 22:00:48;;;;;;;93.13;51.92;;;;;;;;;;10440351;27;20519;-54
2022/01/16 22:05:48;;;;;;;137.75;74.47;;;;;;;;;;10440551;27;20059;-55
2022/01/16 22:10:47;;;;;;;232.07;117.25;;;;;;;;;;10438231;27;20078;-56
2022/01/16 22:15:48;;;;;;;234.73;110.20;;;;;;;;;;10440040;27;20073;-55
2022/01/16 22:20:46;;;;;;;166.85;82.07;;;;;;;;;;10439474;27;20090;-53
2022/01/16 22:25:44;;;;;;;225.90;110.20;;;;;;;;;;10439792;27;20035;-54
2022/01/16 22:30:46;;;;;;;167.80;82.10;;;;;;;;;;10439092;27;20531;-52
2022/01/16 22:35:45;;;;;;;88.60;50.00;;;;;;;;;;10439594;27;20081;-52
2022/01/16 22:40:43;;;;;;;82.25;47.10;;;;;;;;;;10438957;28;20154;-53
2022/01/16 22:45:42;;;;;;;71.95;40.80;;;;;;;;;;10443395;27;20039;-58
2022/01/16 22:50:41;;;;;;;133.20;71.28;;;;;;;;;;10446781;27;20077;-52
2022/01/16 22:55:39;;;;;;;118.55;63.28;;;;;;;;;;10447690;27;20468;-52
2022/01/16 23:00:58;;;;;;;138.60;68.30;;;;;;;;;;10447503;27;20078;-52
2022/01/16 23:05:58;;;;;;;90.10;45.63;;;;;;;;;;10447187;27;20050;-53
2022/01/16 23:10:57;;;;;;;85.68;42.40;;;;;;;;;;10447084;27;20071;-55
2022/01/16 23:15:55;;;;;;;54.67;30.52;;;;;;;;;;10447465;27;20078;-54
2022/01/16 23:20:53;;;;;;;64.57;36.08;;;;;;;;;;10446282;27;20047;-51
2022/01/16 23:25:53;;;;;;;58.33;36.63;;;;;;;;;;10447128;27;20067;-57
2022/01/16 23:30:51;;;;;;;36.78;26.88;;;;;;;;;;10447450;27;20171;-56
2022/01/16 23:35:49;;;;;;;45.72;31.60;;;;;;;;;;10446403;27;20077;-55
2022/01/16 23:40:48;;;;;;;55.63;38.47;;;;;;;;;;10445089;27;20487;-56
2022/01/16 23:45:48;;;;;;;40.58;27.92;;;;;;;;;;10445472;27;20073;-55
2022/01/16 23:50:46;;;;;;;34.45;23.48;;;;;;;;;;10444872;27;20075;-55
2022/01/16 23:55:45;;;;;;;27.20;20.10;;;;;;;;;;10445049;27;20089;-56
